Time;durP1;ratioP1;P1;durP2;ratioP2;P2;SDS_P1;SDS_P2;PMS_P1;PMS_P2;Temp;Humidity;BMP_temperature;BMP_pressure;BME280_temperature;BME280_humidity;BME280_pressure;Samples;Min_cycle;Max_cycle;Signal;HPM_P1;HPM_P2
2021/07/28 00:07:19;;;;;;;21.00;14.20;;;;;;;20.55;100.00;100030.72;715903;1200;114841;-82
2021/07/28 00:37:45;;;;;;;23.77;14.70;;;;;;;20.46;100.00;100010.64;715569;1177;114440;-84
2021/07/28 00:52:49;;;;;;;18.48;11.98;;;;;;;20.06;100.00;100011.48;715903;1175;114806;-83
2021/07/28 01:07:53;;;;;;;15.53;11.38;;;;;;;19.81;100.00;100011.27;716023;1203;114397;-83
2021/07/28 01:22:56;;;;;;;14.98;10.08;;;;;;;19.58;100.00;100009.73;715738;1200;115163;-84
2021/07/28 01:37:59;;;;;;;22.07;12.27;;;;;;;19.54;100.00;99992.53;715965;1200;116062;-84
2021/07/28 01:53:02;;;;;;;14.60;10.60;;;;;;;19.40;100.00;99999.68;716022;1200;115273;-83
2021/07/28 02:08:07;;;;;;;18.35;10.10;;;;;;;19.17;100.00;99992.02;715982;1177;115756;-83
2021/07/28 02:23:10;;;;;;;22.13;11.20;;;;;;;19.11;100.00;99990.18;715891;1200;114373;-83
2021/07/28 02:38:12;;;;;;;14.38;8.78;;;;;;;19.01;100.00;99977.23;715781;1200;114421;-84
2021/07/28 02:53:14;;;;;;;19.18;10.28;;;;;;;19.01;100.00;99993.19;715630;1200;114242;-84
2021/07/28 03:08:19;;;;;;;15.68;9.78;;;;;;;19.03;100.00;100007.11;715682;1202;114346;-84
2021/07/28 03:23:21;;;;;;;16.10;10.00;;;;;;;18.97;100.00;100010.55;715820;1176;115107;-84
2021/07/28 03:38:23;;;;;;;16.13;10.55;;;;;;;18.94;100.00;100018.92;715876;1200;114571;-84
2021/07/28 03:53:26;;;;;;;29.30;11.10;;;;;;;19.06;100.00;100022.66;715914;1200;114706;-84
2021/07/28 04:08:30;;;;;;;17.40;10.83;;;;;;;19.62;100.00;100024.30;715876;1203;115059;-83
2021/07/28 04:23:32;;;;;;;17.63;10.25;;;;;;;19.97;100.00;100033.17;716050;1200;114464;-84
2021/07/28 04:38:34;;;;;;;23.78;11.90;;;;;;;19.91;100.00;100040.13;715976;1200;115228;-84
2021/07/28 04:53:36;;;;;;;15.78;9.93;;;;;;;20.48;100.00;100034.41;716152;1199;116196;-86
2021/07/28 05:08:38;;;;;;;21.95;11.13;;;;;;;20.73;100.00;100031.94;716269;1200;114725;-84
2021/07/28 05:23:43;;;;;;;23.00;10.30;;;;;;;21.32;100.00;100030.11;716309;1201;115357;-83
2021/07/28 05:38:48;;;;;;;17.33;9.60;;;;;;;22.01;100.00;100030.33;716598;1200;114531;-87
2021/07/28 05:53:50;;;;;;;13.20;8.03;;;;;;;22.75;100.00;100032.39;719487;1177;114334;-88
2021/07/28 06:08:54;;;;;;;12.40;7.35;;;;;;;23.53;100.00;100033.55;719704;1200;113540;-88
2021/07/28 06:23:59;;;;;;;11.13;6.73;;;;;;;24.64;99.01;100034.11;718639;1200;114490;-83
2021/07/28 06:39:01;;;;;;;16.95;7.65;;;;;;;25.23;96.32;100045.56;718094;1189;114802;-82
2021/07/28 06:54:03;;;;;;;15.47;7.43;;;;;;;25.73;92.79;100045.95;715881;1200;115123;-81
2021/07/28 07:09:05;;;;;;;7.17;5.30;;;;;;;26.37;91.24;100043.00;714985;1200;115042;-86
2021/07/28 07:24:08;;;;;;;10.80;6.83;;;;;;;26.43;89.01;100041.20;718618;1199;115578;-89
2021/07/28 07:39:10;;;;;;;10.18;6.18;;;;;;;27.10;88.01;100038.63;717101;1200;115063;-86
2021/07/28 07:54:12;;;;;;;11.40;5.37;;;;;;;27.69;86.41;100027.16;715869;1200;114688;-84
2021/07/28 08:09:14;;;;;;;11.35;4.80;;;;;;;28.51;82.57;100026.98;716372;1200;114960;-84
2021/07/28 08:47:06;;;;;;;5.33;3.83;;;;;;;29.56;70.15;100019.83;716051;1187;23118;-79
2021/07/28 09:02:09;;;;;;;8.70;3.93;;;;;;;28.79;68.87;100028.49;715541;1178;113515;-81
2021/07/28 09:17:17;;;;;;;9.53;4.83;;;;;;;27.87;70.88;100044.81;718326;1200;114050;-84
2021/07/28 09:32:20;;;;;;;8.70;5.03;;;;;;;26.81;75.85;100065.70;717195;1199;114289;-82
2021/07/28 09:47:24;;;;;;;7.08;4.98;;;;;;;25.80;83.63;100052.02;714640;1200;114008;-79
2021/07/28 10:02:26;;;;;;;6.15;4.80;;;;;;;26.46;84.16;100023.76;714362;1200;114624;-80
2021/07/28 10:17:32;;;;;;;17.08;4.78;;;;;;;27.42;83.45;100019.88;714363;1187;113989;-79
2021/07/28 10:32:34;;;;;;;6.83;4.10;;;;;;;29.03;80.71;100004.58;714191;1203;113538;-81
2021/07/28 10:47:39;;;;;;;4.40;3.70;;;;;;;30.30;76.16;99987.94;714357;1189;113840;-79
2021/07/28 11:02:57;;;;;;;3.35;3.05;;;;;;;32.06;71.13;99968.78;714190;1182;114272;-77
2021/07/28 11:18:00;;;;;;;4.28;3.15;;;;;;;32.94;66.28;99937.92;714684;1178;113566;-79
2021/07/28 11:33:13;;;;;;;4.23;3.40;;;;;;;33.44;63.94;99923.88;728379;1176;114306;-80
2021/07/28 11:48:29;;;;;;;6.25;3.33;;;;;;;34.16;61.47;99911.73;714829;1176;113447;-82
2021/07/28 12:03:31;;;;;;;5.58;3.50;;;;;;;34.80;59.10;99900.05;714798;1204;113658;-79
2021/07/28 12:18:53;;;;;;;5.75;3.83;;;;;;;34.40;58.02;99878.07;716529;1200;115158;-80
2021/07/28 12:34:20;;;;;;;6.03;4.15;;;;;;;34.87;57.87;99862.34;715732;1202;113606;-79
2021/07/28 12:49:23;;;;;;;4.70;4.20;;;;;;;33.77;57.09;99839.55;715702;1199;114504;-79
2021/07/28 13:04:27;;;;;;;6.03;4.83;;;;;;;35.55;56.31;99812.41;715438;1200;113572;-80
2021/07/28 13:19:30;;;;;;;4.55;4.13;;;;;;;34.26;55.50;99837.23;715807;1199;113429;-79
2021/07/28 13:34:33;;;;;;;7.35;4.63;;;;;;;33.62;56.57;99803.39;716006;1174;113427;-82
2021/07/28 13:49:36;;;;;;;6.97;4.97;;;;;;;33.59;57.17;99782.26;717562;1182;113404;-76
2021/07/28 14:04:39;;;;;;;5.13;4.40;;;;;;;34.24;54.96;99752.39;714592;1199;115264;-76
2021/07/28 14:19:41;;;;;;;5.23;3.83;;;;;;;33.57;56.69;99734.73;714085;1200;115184;-78
2021/07/28 14:34:44;;;;;;;4.13;2.75;;;;;;;30.74;58.62;99767.23;714047;1199;113622;-78
2021/07/28 14:49:46;;;;;;;7.23;5.43;;;;;;;31.46;61.12;99744.11;714292;1200;113693;-77
2021/07/28 15:04:48;;;;;;;8.55;5.23;;;;;;;29.90;64.36;99729.30;714126;1201;114888;-77
2021/07/28 15:19:51;;;;;;;20.07;7.90;;;;;;;28.46;72.20;99701.39;714135;1200;113585;-75
2021/07/28 15:34:53;;;;;;;10.50;6.03;;;;;;;28.01;78.07;99714.52;714041;1199;115280;-74
2021/07/28 15:49:55;;;;;;;12.97;7.83;;;;;;;27.36;86.56;99741.65;714065;1180;113985;-76
2021/07/28 16:04:58;;;;;;;12.43;7.70;;;;;;;27.60;89.57;99776.29;714229;1182;113844;-76
2021/07/28 16:20:22;;;;;;;16.28;14.38;;;;;;;27.10;90.69;99737.97;714045;1200;114730;-75
2021/07/28 16:35:27;;;;;;;26.00;14.58;;;;;;;26.89;95.00;99694.76;714172;1177;113528;-75
2021/07/28 16:50:30;;;;;;;17.17;10.13;;;;;;;26.63;98.30;99682.95;714143;1200;114642;-77
2021/07/28 17:05:32;;;;;;;11.00;9.10;;;;;;;26.31;99.63;99717.91;714239;1199;114520;-75
2021/07/28 17:20:34;;;;;;;16.23;9.80;;;;;;;25.93;100.00;99758.02;714248;1200;113609;-75
2021/07/28 17:35:48;;;;;;;19.73;11.05;;;;;;;25.91;100.00;99744.84;714545;1199;115116;-80
2021/07/28 17:50:51;;;;;;;21.80;12.70;;;;;;;25.48;100.00;99741.05;715092;1185;113989;-83
2021/07/28 18:05:53;;;;;;;17.50;10.18;;;;;;;25.13;100.00;99760.09;716714;1200;114665;-84
2021/07/28 18:20:56;;;;;;;13.90;8.87;;;;;;;24.99;100.00;99779.20;716408;1189;113957;-84
2021/07/28 18:35:58;;;;;;;10.27;7.50;;;;;;;24.75;100.00;99795.42;716793;1199;113860;-82
2021/07/28 18:51:00;;;;;;;13.55;9.05;;;;;;;24.69;100.00;99771.44;716737;1199;114708;-81
2021/07/28 19:06:02;;;;;;;12.60;9.78;;;;;;;24.05;100.00;99740.22;716553;1192;113983;-83
2021/07/28 19:21:05;;;;;;;14.05;9.73;;;;;;;23.91;100.00;99788.70;716439;1200;114717;-76
2021/07/28 19:36:07;;;;;;;11.75;7.90;;;;;;;23.62;100.00;99805.68;714357;1199;114937;-75
2021/07/28 19:51:09;;;;;;;11.75;8.60;;;;;;;23.31;100.00;99816.48;714026;1176;114252;-76
2021/07/28 20:06:12;;;;;;;15.10;9.28;;;;;;;23.16;100.00;99829.48;714404;1199;113909;-77
2021/07/28 20:21:15;;;;;;;17.35;9.45;;;;;;;23.03;100.00;99809.89;714689;1199;114246;-76
2021/07/28 20:36:18;;;;;;;16.25;9.90;;;;;;;23.09;100.00;99829.55;714647;1178;113690;-75
2021/07/28 20:51:20;;;;;;;15.50;10.65;;;;;;;22.65;100.00;99827.09;714352;1176;114533;-75
2021/07/28 21:06:23;;;;;;;13.98;10.18;;;;;;;22.81;100.00;99814.14;715407;1200;114773;-75
2021/07/28 21:21:25;;;;;;;19.53;10.25;;;;;;;22.74;100.00;99812.36;714913;1176;115269;-76
2021/07/28 21:36:30;;;;;;;16.83;10.60;;;;;;;22.60;100.00;99810.91;714772;1176;113962;-75
2021/07/28 21:51:41;;;;;;;20.90;12.18;;;;;;;22.39;100.00;99799.66;714838;1200;114121;-75
2021/07/28 22:06:44;;;;;;;17.40;12.47;;;;;;;22.30;100.00;99822.34;714614;1200;113843;-74
2021/07/28 22:21:46;;;;;;;17.53;12.83;;;;;;;22.18;100.00;99829.48;714524;1204;114768;-75
2021/07/28 22:36:48;;;;;;;17.68;13.30;;;;;;;22.15;100.00;99840.63;715645;1176;114017;-76
2021/07/28 23:07:19;;;;;;;15.23;10.70;;;;;;;22.19;100.00;99826.58;714727;1200;114345;-77
2021/07/28 23:22:21;;;;;;;15.87;10.00;;;;;;;22.21;100.00;99807.66;714215;1199;114759;-76
2021/07/28 23:37:23;;;;;;;14.43;9.40;;;;;;;22.09;100.00;99810.26;714043;1200;113919;-78
2021/07/28 23:52:25;;;;;;;16.38;10.08;;;;;;;22.02;100.00;99807.66;713920;1202;114686;-76
